Time;durP1;ratioP1;P1;durP2;ratioP2;P2;SDS_P1;SDS_P2;PMS_P1;PMS_P2;Temp;Humidity;BMP_temperature;BMP_pressure;BME280_temperature;BME280_humidity;BME280_pressure;Samples;Min_cycle;Max_cycle;Signal;HPM_P1;HPM_P2
2022/09/16 00:01:27;;;;;;;;;2.50;2.50;;;;;13.52;73.70;99254.56;5032958;28;9494;-60
2022/09/16 00:03:55;;;;;;;;;1.00;1.00;;;;;13.52;74.02;99259.91;5033305;28;8848;-59
2022/09/16 00:06:23;;;;;;;;;1.00;1.00;;;;;13.52;73.77;99261.78;5033859;28;8909;-59
2022/09/16 00:08:51;;;;;;;;;0.50;0.50;;;;;13.50;74.25;99256.56;5034391;28;8833;-60
2022/09/16 00:11:18;;;;;;;;;0.00;0.00;;;;;13.49;73.91;99260.25;5034654;28;8837;-61
2022/09/16 00:13:46;;;;;;;;;2.00;1.00;;;;;13.51;74.06;99268.13;5034964;28;8821;-60
2022/09/16 00:16:14;;;;;;;;;0.50;0.50;;;;;13.50;73.42;99259.25;5034977;28;8921;-59
2022/09/16 00:18:41;;;;;;;;;3.00;2.00;;;;;13.49;73.97;99254.91;5034926;28;8836;-59
2022/09/16 00:21:09;;;;;;;;;0.75;0.25;;;;;13.48;74.16;99255.91;5034749;28;8837;-59
2022/09/16 00:23:37;;;;;;;;;1.00;1.00;;;;;13.48;74.24;99258.56;5034581;28;8909;-59
2022/09/16 00:26:04;;;;;;;;;0.00;0.00;;;;;13.49;74.15;99262.06;5033490;28;8905;-60
2022/09/16 00:28:32;;;;;;;;;1.00;1.00;;;;;13.47;73.71;99264.06;5034243;28;8836;-61
2022/09/16 00:30:59;;;;;;;;;1.50;1.00;;;;;13.47;73.74;99256.03;5034825;28;8836;-59
2022/09/16 00:33:27;;;;;;;;;1.00;1.00;;;;;13.48;74.06;99257.72;5034902;28;8841;-59
2022/09/16 00:35:55;;;;;;;;;2.00;2.00;;;;;13.47;74.05;99259.56;5034419;28;8856;-60
2022/09/16 00:38:23;;;;;;;;;1.00;1.00;;;;;13.47;74.05;99256.91;5034356;28;8824;-61
2022/09/16 00:40:50;;;;;;;;;1.50;1.50;;;;;13.47;74.15;99261.41;5033840;28;9537;-60
2022/09/16 00:43:18;;;;;;;;;0.50;0.50;;;;;13.47;74.00;99262.25;5034231;28;8833;-60
2022/09/16 00:45:46;;;;;;;;;0.75;0.75;;;;;13.49;73.97;99256.72;5033830;28;8836;-59
2022/09/16 00:48:14;;;;;;;;;1.00;1.00;;;;;13.49;74.00;99254.91;5034169;28;8841;-61
2022/09/16 00:50:41;;;;;;;;;0.50;0.50;;;;;13.49;74.02;99262.06;5033678;28;8849;-59
2022/09/16 00:53:09;;;;;;;;;2.00;1.00;;;;;13.50;73.43;99250.38;5034178;28;9598;-59
2022/09/16 00:55:36;;;;;;;;;3.25;3.25;;;;;13.48;73.46;99247.88;5033988;28;8821;-59
2022/09/16 00:58:04;;;;;;;;;1.00;1.00;;;;;13.47;73.77;99248.88;5033945;28;8821;-59
2022/09/16 01:00:33;;;;;;;;;2.00;2.00;;;;;13.47;74.30;99248.03;5033514;28;8837;-59
2022/09/16 01:03:01;;;;;;;;;3.00;3.00;;;;;13.45;74.05;99253.53;5033777;28;8857;-59
2022/09/16 01:05:28;;;;;;;;;2.50;1.50;;;;;13.45;74.14;99250.84;5033610;28;8901;-59
2022/09/16 01:07:57;;;;;;;;;0.75;0.75;;;;;13.45;73.83;99244.66;5033940;28;8828;-59
2022/09/16 01:10:25;;;;;;;;;1.00;1.00;;;;;13.44;73.94;99248.34;5033762;28;8837;-59
2022/09/16 01:12:52;;;;;;;;;1.00;1.00;;;;;13.45;74.30;99247.34;5033747;28;8851;-59
2022/09/16 01:15:21;;;;;;;;;3.00;2.50;;;;;13.43;74.11;99241.31;5033823;28;8852;-59
2022/09/16 01:17:48;;;;;;;;;0.00;0.00;;;;;13.43;74.22;99249.34;5033830;28;8821;-59
2022/09/16 01:20:16;;;;;;;;;1.00;1.00;;;;;13.42;73.96;99239.63;5033850;28;8836;-59
2022/09/16 01:22:44;;;;;;;;;1.00;1.00;;;;;13.41;74.03;99245.97;5033648;28;8824;-59
2022/09/16 01:25:12;;;;;;;;;1.00;1.00;;;;;13.39;74.14;99247.97;5033906;28;8833;-59
2022/09/16 01:27:40;;;;;;;;;1.00;1.00;;;;;13.38;73.94;99248.97;5033796;28;8844;-59
2022/09/16 01:30:07;;;;;;;;;2.50;2.50;;;;;13.39;73.79;99256.00;5033725;28;8821;-59
2022/09/16 01:32:35;;;;;;;;;1.50;1.50;;;;;13.37;73.78;99252.66;5033645;28;8821;-59
2022/09/16 01:35:03;;;;;;;;;1.00;1.00;;;;;13.36;74.29;99250.97;5033615;28;8909;-59
2022/09/16 01:37:31;;;;;;;;;1.00;1.00;;;;;13.35;74.08;99247.44;5033460;28;8833;-59
2022/09/16 01:39:59;;;;;;;;;0.00;0.00;;;;;13.35;74.07;99255.47;5033646;28;8821;-59
2022/09/16 01:42:26;;;;;;;;;1.00;1.00;;;;;13.35;74.52;99254.66;5033267;28;8829;-60
2022/09/16 01:44:54;;;;;;;;;1.00;1.00;;;;;13.34;74.38;99258.28;5033440;28;8900;-59
2022/09/16 01:47:22;;;;;;;;;0.75;0.75;;;;;13.34;74.12;99255.59;5033026;28;8860;-59
2022/09/16 01:49:49;;;;;;;;;1.00;1.00;;;;;13.32;74.53;99253.13;5033726;28;8859;-59
2022/09/16 01:52:17;;;;;;;;;1.00;1.00;;;;;13.34;74.25;99258.28;5033003;28;8837;-59
2022/09/16 01:54:44;;;;;;;;;0.75;0.75;;;;;13.33;74.14;99253.94;5033252;28;8840;-59
2022/09/16 01:57:12;;;;;;;;;2.00;2.00;;;;;13.32;74.20;99247.75;5032667;28;8829;-59
2022/09/16 01:59:40;;;;;;;;;0.00;0.00;;;;;13.31;74.10;99248.75;5033332;28;8833;-59
2022/09/16 02:02:08;;;;;;;;;0.50;0.50;;;;;13.32;74.36;99252.25;5033355;28;9603;-60
2022/09/16 02:04:36;;;;;;;;;0.25;0.00;;;;;13.32;73.86;99252.25;5032927;28;8821;-60
2022/09/16 02:07:04;;;;;;;;;3.00;3.00;;;;;13.31;74.17;99251.44;5033000;28;8836;-60
2022/09/16 02:09:32;;;;;;;;;2.50;1.00;;;;;13.32;74.88;99254.94;5032892;28;9574;-59
2022/09/16 02:12:00;;;;;;;;;1.00;0.50;;;;;13.32;74.42;99253.13;5033340;28;8921;-59
2022/09/16 02:14:28;;;;;;;;;0.50;0.50;;;;;13.33;74.15;99251.25;5033192;28;8833;-59
2022/09/16 02:16:55;;;;;;;;;0.00;0.00;;;;;13.33;74.46;99248.59;5033011;28;8904;-59
2022/09/16 02:19:23;;;;;;;;;2.50;2.50;;;;;13.33;74.68;99249.44;5032839;28;9519;-59
2022/09/16 02:21:50;;;;;;;;;1.00;1.00;;;;;13.34;74.13;99251.13;5033100;28;8833;-61
2022/09/16 02:24:24;;;;;;;;;0.25;0.25;;;;;13.35;74.65;99249.28;5033304;28;8825;-59
2022/09/16 02:26:52;;;;;;;;;2.00;2.00;;;;;13.37;74.29;99244.63;5032578;28;8864;-59
2022/09/16 02:29:20;;;;;;;;;0.00;0.00;;;;;13.35;74.42;99241.28;5032758;28;8841;-59
2022/09/16 02:31:47;;;;;;;;;0.00;0.00;;;;;13.26;74.34;99240.34;5033057;28;8849;-59
2022/09/16 02:34:21;;;;;;;;;0.50;0.50;;;;;13.21;75.17;99233.81;5032914;28;8840;-59
2022/09/16 02:36:48;;;;;;;;;0.00;0.00;;;;;13.16;74.65;99244.13;5032284;28;8829;-59
2022/09/16 02:39:16;;;;;;;;;0.50;0.50;;;;;13.13;74.64;99239.91;5032652;28;9505;-59
2022/09/16 02:41:44;;;;;;;;;2.00;1.00;;;;;13.12;75.23;99246.25;5032915;28;9506;-61
2022/09/16 02:44:11;;;;;;;;;0.75;0.00;;;;;13.12;74.75;99243.59;5032218;28;8832;-58
2022/09/16 02:46:39;;;;;;;;;1.00;0.00;;;;;13.13;74.75;99237.25;5032720;28;8837;-61
2022/09/16 02:49:07;;;;;;;;;0.25;0.25;;;;;13.15;74.95;99242.44;5031713;28;8987;-61
2022/09/16 02:51:35;;;;;;;;;0.50;0.00;;;;;13.17;74.49;99240.44;5032648;28;8901;-59
2022/09/16 02:54:03;;;;;;;;;0.00;0.00;;;;;13.18;74.64;99234.09;5032667;28;8821;-60
2022/09/16 02:56:30;;;;;;;;;1.00;1.00;;;;;13.18;74.84;99240.31;5031751;28;8825;-61
2022/09/16 02:58:58;;;;;;;;;0.00;0.00;;;;;13.19;74.72;99230.44;5032408;28;8821;-59
2022/09/16 03:01:26;;;;;;;;;1.00;1.00;;;;;13.19;75.07;99235.78;5032297;28;8844;-59
2022/09/16 03:03:53;;;;;;;;;0.00;0.00;;;;;13.17;74.50;99241.31;5031802;28;8829;-60
2022/09/16 03:06:21;;;;;;;;;0.00;0.00;;;;;13.17;74.63;99235.94;5032212;28;8908;-59
2022/09/16 03:08:49;;;;;;;;;0.25;0.00;;;;;13.16;74.64;99228.06;5030873;28;8832;-61
2022/09/16 03:11:16;;;;;;;;;0.00;0.00;;;;;13.16;75.08;99228.94;5031949;28;9610;-59
2022/09/16 03:13:44;;;;;;;;;0.75;0.00;;;;;13.16;74.93;99233.44;5031934;28;8905;-59
2022/09/16 03:16:11;;;;;;;;;0.00;0.00;;;;;13.13;74.73;99231.06;5031674;28;8824;-61
2022/09/16 03:18:39;;;;;;;;;0.00;0.00;;;;;13.13;74.73;99228.41;5031882;28;8817;-59
2022/09/16 03:21:07;;;;;;;;;1.00;1.00;;;;;13.13;74.73;99225.72;5031639;28;8820;-61
2022/09/16 03:23:34;;;;;;;;;0.00;0.00;;;;;13.12;75.14;99229.38;5031512;28;8829;-61
2022/09/16 03:26:03;;;;;;;;;0.25;0.25;;;;;13.12;74.65;99216.84;5031118;28;8825;-59
2022/09/16 03:28:31;;;;;;;;;0.00;0.00;;;;;13.12;75.04;99221.34;5031505;28;8905;-60
2022/09/16 03:30:58;;;;;;;;;4.00;1.00;;;;;13.10;75.04;99215.31;5031246;28;8829;-61
2022/09/16 03:33:26;;;;;;;;;0.75;0.75;;;;;13.09;74.88;99210.97;5031532;28;8825;-61
2022/09/16 03:35:54;;;;;;;;;0.00;0.00;;;;;13.08;75.69;99214.66;5031261;28;9622;-59
2022/09/16 03:38:22;;;;;;;;;1.00;0.75;;;;;13.08;75.17;99212.81;5031272;28;8816;-59
2022/09/16 03:40:49;;;;;;;;;0.00;0.00;;;;;13.07;75.52;99208.44;5031118;28;8837;-60
2022/09/16 03:43:17;;;;;;;;;0.00;0.00;;;;;13.08;75.29;99211.97;5030856;28;8863;-59
2022/09/16 03:45:44;;;;;;;;;0.00;0.00;;;;;13.07;74.98;99210.31;5031192;28;8868;-59
2022/09/16 03:48:12;;;;;;;;;0.25;0.25;;;;;13.07;75.06;99210.31;5030674;28;9530;-60
2022/09/16 03:50:40;;;;;;;;;0.00;0.00;;;;;13.05;75.36;99209.63;5030567;28;8821;-59
2022/09/16 03:53:08;;;;;;;;;1.00;0.50;;;;;13.03;75.53;99209.78;5030628;28;8837;-60
2022/09/16 03:55:35;;;;;;;;;0.00;0.00;;;;;13.02;75.28;99207.25;5030420;28;8837;-59
2022/09/16 03:58:03;;;;;;;;;0.75;0.75;;;;;13.02;75.56;99209.91;5031402;28;8880;-59
2022/09/16 04:00:31;;;;;;;;;1.00;1.00;;;;;12.99;75.11;99203.03;5031071;28;8948;-59
2022/09/16 04:02:59;;;;;;;;;0.50;0.50;;;;;13.00;75.73;99206.56;5030771;28;8904;-60
2022/09/16 04:05:27;;;;;;;;;0.75;0.00;;;;;12.99;75.61;99212.91;5031307;28;8843;-59
2022/09/16 04:07:55;;;;;;;;;0.00;0.00;;;;;12.99;75.56;99202.22;5031609;28;8844;-59
2022/09/16 04:10:22;;;;;;;;;1.00;1.00;;;;;12.98;75.67;99204.03;5030975;28;8941;-60
2022/09/16 04:12:50;;;;;;;;;2.00;1.00;;;;;12.97;75.35;99197.03;5031506;28;9245;-59
2022/09/16 04:15:18;;;;;;;;;1.00;1.00;;;;;12.98;75.24;99200.56;5031032;28;8825;-59
2022/09/16 04:17:46;;;;;;;;;1.00;1.00;;;;;12.97;75.65;99197.03;5030262;28;9520;-59
2022/09/16 04:20:14;;;;;;;;;0.00;0.00;;;;;12.98;75.46;99208.56;5031559;28;9518;-59
2022/09/16 04:22:41;;;;;;;;;0.00;0.00;;;;;12.98;75.21;99205.91;5034130;28;8829;-59
2022/09/16 04:25:09;;;;;;;;;0.75;0.75;;;;;12.97;75.58;99199.69;5033837;28;9555;-59
2022/09/16 04:27:37;;;;;;;;;0.00;0.00;;;;;12.97;75.23;99199.69;5034008;28;8821;-59
2022/09/16 04:30:05;;;;;;;;;0.00;0.00;;;;;12.96;75.44;99202.53;5034027;28;8840;-59
2022/09/16 04:32:32;;;;;;;;;0.00;0.00;;;;;12.94;75.50;99201.81;5033454;28;9595;-59
2022/09/16 04:35:00;;;;;;;;;1.00;1.00;;;;;12.92;75.17;99206.47;5032990;28;8813;-60
2022/09/16 04:37:28;;;;;;;;;0.75;0.75;;;;;12.90;75.40;99206.63;5033826;28;8905;-61
2022/09/16 04:39:56;;;;;;;;;0.00;0.00;;;;;12.91;75.63;99210.97;5034090;28;8920;-59
2022/09/16 04:42:30;;;;;;;;;1.00;0.25;;;;;12.91;75.10;99205.63;5032412;28;8824;-59
2022/09/16 04:44:57;;;;;;;;;0.00;0.00;;;;;12.93;75.94;99205.47;5032228;28;8917;-59
2022/09/16 04:47:25;;;;;;;;;0.00;0.00;;;;;12.94;75.74;99199.13;5032397;28;8897;-59
2022/09/16 04:49:52;;;;;;;;;0.00;0.00;;;;;12.95;75.64;99198.16;5032350;28;8832;-60
2022/09/16 04:52:20;;;;;;;;;0.00;0.00;;;;;12.96;75.72;99207.88;5031911;28;8909;-60
2022/09/16 04:54:48;;;;;;;;;0.50;0.50;;;;;12.94;75.52;99202.69;5032313;28;8836;-60
2022/09/16 04:57:16;;;;;;;;;0.00;0.00;;;;;12.87;75.38;99198.06;5032714;28;8824;-59
2022/09/16 04:59:43;;;;;;;;;2.00;1.00;;;;;12.71;75.86;99206.81;5034017;28;8805;-60
2022/09/16 05:02:11;;;;;;;;;1.00;1.00;;;;;12.57;76.62;99207.34;5033538;28;8841;-60
2022/09/16 05:04:39;;;;;;;;;1.00;0.25;;;;;12.48;76.13;99212.75;5031489;28;8829;-60
2022/09/16 05:07:07;;;;;;;;;1.00;0.00;;;;;12.41;77.16;99217.00;5032510;28;8825;-60
2022/09/16 05:09:36;;;;;;;;;0.75;0.75;;;;;12.35;76.89;99213.13;5032178;28;9482;-60
2022/09/16 05:12:03;;;;;;;;;1.00;1.00;;;;;12.34;76.81;99223.94;5032402;28;8861;-59
2022/09/16 05:14:31;;;;;;;;;1.00;0.75;;;;;12.32;77.25;99216.06;5032147;28;8915;-60
2022/09/16 05:16:59;;;;;;;;;0.50;0.50;;;;;12.32;76.97;99217.94;5032479;28;8844;-60
2022/09/16 05:19:26;;;;;;;;;3.50;3.00;;;;;12.29;76.78;99212.88;5031393;28;8829;-60
2022/09/16 05:21:54;;;;;;;;;0.75;0.75;;;;;12.27;76.55;99212.19;5031128;28;8910;-60
2022/09/16 05:24:22;;;;;;;;;1.00;1.00;;;;;12.25;77.16;99211.50;5031007;28;8875;-60
2022/09/16 05:26:49;;;;;;;;;1.00;0.00;;;;;12.24;77.42;99217.84;5032235;28;8921;-60
2022/09/16 05:29:17;;;;;;;;;0.00;0.00;;;;;12.25;77.16;99216.84;5032440;28;8914;-62
2022/09/16 05:31:46;;;;;;;;;0.25;0.25;;;;;12.27;77.28;99214.84;5030645;28;8917;-60
2022/09/16 05:34:14;;;;;;;;;0.50;0.50;;;;;12.30;77.24;99215.41;5031268;28;8825;-61
2022/09/16 05:36:42;;;;;;;;;1.00;1.00;;;;;12.35;76.73;99220.28;5030880;28;8874;-60
2022/09/16 05:39:10;;;;;;;;;1.00;0.00;;;;;12.42;76.98;99221.34;5031454;28;8910;-60
2022/09/16 05:41:54;;;;;;;;;0.50;0.50;;;;;12.49;76.25;99215.28;5030843;28;8951;-61
2022/09/16 05:44:22;;;;;;;;;1.00;1.00;;;;;12.55;76.60;99214.63;5030884;28;8906;-60
2022/09/16 05:46:50;;;;;;;;;1.00;0.25;;;;;12.60;76.05;99214.22;5030820;28;8832;-60
2022/09/16 05:49:19;;;;;;;;;0.50;0.50;;;;;12.63;75.66;99212.09;5029770;28;8844;-60
2022/09/16 05:51:47;;;;;;;;;0.75;0.75;;;;;12.68;76.10;99203.59;5030054;28;8844;-60
2022/09/16 05:54:17;;;;;;;;;1.00;0.00;;;;;12.70;76.02;99205.09;5030932;28;8885;-61
2022/09/16 05:56:45;;;;;;;;;1.00;1.00;;;;;12.73;75.66;99206.63;5029417;28;8828;-61
2022/09/16 05:59:12;;;;;;;;;1.00;0.75;;;;;12.79;75.92;99203.34;5031142;28;9582;-60
2022/09/16 06:01:40;;;;;;;;;0.75;0.25;;;;;12.81;75.69;99199.53;5029515;28;8837;-61
2022/09/16 06:04:08;;;;;;;;;0.75;0.00;;;;;12.86;75.43;99204.41;5030212;28;8824;-60
2022/09/16 06:06:36;;;;;;;;;0.00;0.00;;;;;12.88;75.29;99207.78;5030339;28;8836;-60
2022/09/16 06:09:04;;;;;;;;;1.00;1.00;;;;;12.89;75.64;99204.94;5030584;28;8893;-61
2022/09/16 06:11:31;;;;;;;;;1.00;0.50;;;;;12.88;74.98;99205.09;5030595;28;8861;-61
2022/09/16 06:14:00;;;;;;;;;0.00;0.00;;;;;12.88;75.45;99207.78;5030672;28;8851;-60
2022/09/16 06:16:30;;;;;;;;;0.50;0.00;;;;;12.87;75.69;99214.09;5031533;28;8832;-61
2022/09/16 06:18:58;;;;;;;;;0.00;0.00;;;;;12.87;75.07;99214.09;5031638;28;8844;-61
2022/09/16 06:21:26;;;;;;;;;0.00;0.00;;;;;12.87;75.52;99208.75;5031980;28;8893;-60
2022/09/16 06:23:54;;;;;;;;;1.00;0.50;;;;;12.89;75.50;99222.81;5031969;28;8886;-60
2022/09/16 06:26:22;;;;;;;;;1.00;1.00;;;;;12.90;75.45;99216.50;5032504;28;8901;-60
2022/09/16 06:28:50;;;;;;;;;0.00;0.00;;;;;12.95;75.30;99219.56;5032258;28;8820;-60
2022/09/16 06:31:17;;;;;;;;;0.00;0.00;;;;;13.03;75.16;99222.28;5031549;28;8844;-60
2022/09/16 06:33:45;;;;;;;;;1.00;1.00;;;;;13.11;75.21;99223.19;5031401;28;8824;-60
2022/09/16 06:36:12;;;;;;;;;0.00;0.00;;;;;13.21;74.57;99217.78;5030851;28;8817;-60
2022/09/16 06:38:40;;;;;;;;;1.00;1.00;;;;;13.32;75.04;99222.84;5030175;28;8825;-60
2022/09/16 06:41:08;;;;;;;;;0.00;0.00;;;;;13.40;74.24;99228.25;5029820;28;9309;-61
2022/09/16 06:43:36;;;;;;;;;0.00;0.00;;;;;13.47;74.23;99223.94;5030117;28;8860;-60
2022/09/16 06:46:04;;;;;;;;;3.00;3.00;;;;;13.56;73.67;99223.00;5030145;28;8824;-60
2022/09/16 06:48:33;;;;;;;;;1.00;1.00;;;;;13.62;74.03;99214.34;5030431;28;8825;-60
2022/09/16 06:51:01;;;;;;;;;1.25;1.25;;;;;13.66;73.89;99213.84;5030910;28;8844;-60
2022/09/16 06:53:29;;;;;;;;;1.00;1.00;;;;;13.72;73.70;99221.25;5031045;28;8837;-60
2022/09/16 06:55:57;;;;;;;;;1.00;1.00;;;;;13.78;73.99;99215.28;5031129;28;8848;-60
2022/09/16 06:58:24;;;;;;;;;0.50;0.50;;;;;13.81;73.66;99217.63;5030515;28;8844;-61
2022/09/16 07:00:52;;;;;;;;;1.00;1.00;;;;;13.85;73.36;99215.47;5031166;28;8813;-60
2022/09/16 07:03:19;;;;;;;;;0.00;0.00;;;;;13.90;73.60;99216.66;5031121;28;8816;-61
2022/09/16 07:05:47;;;;;;;;;1.00;1.00;;;;;13.96;73.38;99215.19;5029921;28;8860;-60
2022/09/16 07:08:15;;;;;;;;;3.00;1.00;;;;;14.01;72.94;99215.53;5029736;28;8844;-60
2022/09/16 07:10:43;;;;;;;;;1.00;1.00;;;;;14.08;73.38;99217.41;5028952;28;8875;-60
2022/09/16 07:13:10;;;;;;;;;3.00;3.00;;;;;14.14;73.25;99214.09;5029717;28;8924;-61
2022/09/16 07:15:38;;;;;;;;;0.50;0.50;;;;;14.19;73.29;99209.09;5028609;28;8929;-60
2022/09/16 07:18:26;;;;;;;;;1.00;1.00;;;;;14.26;72.89;99207.44;5030501;28;9542;-61
2022/09/16 07:20:54;;;;;;;;;1.00;1.00;;;;;14.31;73.00;99217.66;5031101;28;8848;-60
2022/09/16 07:23:21;;;;;;;;;2.00;1.00;;;;;14.30;72.67;99213.31;5030506;28;8840;-61
2022/09/16 07:25:49;;;;;;;;;0.75;0.75;;;;;14.31;73.00;99225.72;5031165;28;8848;-60
2022/09/16 07:28:16;;;;;;;;;0.00;0.00;;;;;14.39;72.60;99231.94;5030907;28;8848;-61
2022/09/16 07:30:45;;;;;;;;;1.00;0.00;;;;;14.57;71.84;99229.97;5030732;28;8845;-61
2022/09/16 07:33:13;;;;;;;;;1.00;1.00;;;;;14.69;72.02;99227.78;5030223;28;8836;-61
2022/09/16 07:35:41;;;;;;;;;1.00;1.00;;;;;14.71;71.71;99223.97;5030070;28;8813;-60
2022/09/16 07:38:08;;;;;;;;;1.00;1.00;;;;;14.69;71.66;99222.44;5029768;28;8849;-60
2022/09/16 07:40:39;;;;;;;;;3.00;3.00;;;;;14.60;72.32;99226.13;5029954;28;8928;-60
2022/09/16 07:43:07;;;;;;;;;1.00;1.00;;;;;14.55;72.44;99226.63;5029224;28;8832;-60
2022/09/16 07:45:35;;;;;;;;;3.00;2.00;;;;;14.48;72.62;99227.44;5028222;28;8824;-60
2022/09/16 07:48:02;;;;;;;;;3.00;2.50;;;;;14.47;72.28;99233.78;5029131;28;8833;-61
2022/09/16 07:50:30;;;;;;;;;4.25;3.50;;;;;14.49;72.91;99229.13;5029447;28;8860;-61
2022/09/16 07:52:58;;;;;;;;;6.00;5.00;;;;;14.54;72.29;99234.81;5031002;28;8833;-60
2022/09/16 07:55:26;;;;;;;;;6.50;6.50;;;;;14.55;72.39;99239.16;5031834;28;8928;-61
2022/09/16 07:57:54;;;;;;;;;7.00;7.00;;;;;14.53;72.59;99242.03;5034694;28;8884;-60
2022/09/16 08:00:22;;;;;;;;;6.00;5.50;;;;;14.42;72.78;99236.94;5034788;28;8832;-61
2022/09/16 08:02:49;;;;;;;;;6.25;6.25;;;;;14.30;72.90;99240.09;5034771;28;8821;-61
2022/09/16 08:05:18;;;;;;;;;6.00;6.00;;;;;14.19;73.30;99243.09;5034799;28;8813;-60
2022/09/16 08:07:45;;;;;;;;;9.00;7.00;;;;;14.08;73.61;99243.34;5033753;28;9551;-62
2022/09/16 08:10:13;;;;;;;;;3.00;3.00;;;;;13.91;74.20;99245.13;5033731;28;8975;-60
2022/09/16 08:12:41;;;;;;;;;6.25;6.00;;;;;13.79;74.76;99248.22;5033422;28;8829;-60
2022/09/16 08:15:09;;;;;;;;;8.00;6.00;;;;;13.78;74.69;99239.34;5033832;28;8828;-61
2022/09/16 08:17:37;;;;;;;;;3.75;3.75;;;;;13.84;74.50;99237.88;5033537;28;8828;-61
2022/09/16 08:20:06;;;;;;;;;6.50;5.00;;;;;13.94;74.23;99246.63;5033877;28;8825;-60
2022/09/16 08:22:33;;;;;;;;;6.00;4.50;;;;;14.06;73.89;99245.34;5034007;28;8857;-61
2022/09/16 08:25:01;;;;;;;;;3.00;3.00;;;;;14.16;73.49;99238.84;5032981;28;8816;-61
2022/09/16 08:27:28;;;;;;;;;7.00;6.75;;;;;14.29;73.20;99250.00;5033031;28;8825;-61
2022/09/16 08:29:56;;;;;;;;;6.00;6.00;;;;;14.41;72.55;99250.53;5032779;28;8916;-61
2022/09/16 08:32:24;;;;;;;;;10.75;7.50;;;;;14.54;72.63;99242.84;5032507;28;8889;-61
2022/09/16 08:34:52;;;;;;;;;6.00;6.00;;;;;14.62;72.46;99245.53;5032981;28;8828;-61
2022/09/16 08:37:20;;;;;;;;;7.00;7.00;;;;;14.72;72.38;99241.72;5032957;28;8828;-61
2022/09/16 08:39:47;;;;;;;;;7.00;7.00;;;;;14.86;72.00;99248.28;5033191;28;8908;-61
2022/09/16 08:42:15;;;;;;;;;7.00;6.50;;;;;15.00;71.70;99250.28;5032338;28;8974;-60
2022/09/16 08:44:45;;;;;;;;;7.00;7.00;;;;;15.16;71.21;99245.78;5031563;28;8821;-61
2022/09/16 08:47:13;;;;;;;;;6.00;4.00;;;;;15.28;70.81;99246.25;5032450;28;8824;-61
2022/09/16 08:49:40;;;;;;;;;11.00;9.50;;;;;15.50;70.96;99245.59;5032665;28;8845;-60
2022/09/16 08:52:14;;;;;;;;;11.50;8.00;;;;;15.72;70.49;99245.75;5032162;28;8840;-61
2022/09/16 08:54:42;;;;;;;;;5.20;5.20;;;;;15.92;69.61;99248.88;5032249;28;8840;-61
2022/09/16 08:57:10;;;;;;;;;6.00;4.00;;;;;16.09;69.34;99248.63;5032982;28;8844;-61
2022/09/16 08:59:38;;;;;;;;;8.20;7.80;;;;;16.14;69.59;99248.13;5032877;28;9222;-61
2022/09/16 09:02:05;;;;;;;;;7.40;7.40;;;;;16.10;69.43;99261.06;5032745;28;8825;-61
2022/09/16 09:04:36;;;;;;;;;4.00;4.00;;;;;16.17;69.69;99254.81;5032112;28;8808;-61
2022/09/16 09:07:04;;;;;;;;;5.50;5.50;;;;;16.35;69.43;99251.88;5031938;28;8846;-61
2022/09/16 09:09:32;;;;;;;;;6.50;6.50;;;;;16.50;68.61;99250.16;5031503;28;8828;-60
2022/09/16 09:12:00;;;;;;;;;6.00;6.00;;;;;16.83;68.17;99241.72;5028222;28;8891;-61
2022/09/16 09:14:28;;;;;;;;;6.00;6.00;;;;;16.91;67.84;99240.81;5027762;28;8864;-61
2022/09/16 09:16:56;;;;;;;;;5.60;4.40;;;;;16.91;67.63;99249.75;5028232;28;8844;-61
2022/09/16 09:19:24;;;;;;;;;1.00;1.00;;;;;16.88;67.36;99252.78;5028745;28;9565;-61
2022/09/16 09:21:52;;;;;;;;;3.40;3.00;;;;;16.67;68.17;99260.66;5029234;28;8836;-61
2022/09/16 09:24:20;;;;;;;;;5.20;4.80;;;;;16.45;68.68;99257.91;5029294;28;8836;-61
2022/09/16 09:26:48;;;;;;;;;3.40;3.00;;;;;16.59;68.78;99251.78;5028500;28;8875;-61
2022/09/16 09:29:15;;;;;;;;;4.00;4.00;;;;;16.66;68.26;99250.06;5028058;28;8825;-61
2022/09/16 09:31:44;;;;;;;;;7.00;7.00;;;;;16.85;67.85;99250.44;5028950;28;8837;-61
2022/09/16 09:34:11;;;;;;;;;3.00;3.00;;;;;16.99;67.23;99236.22;5028552;28;8841;-60
2022/09/16 09:36:39;;;;;;;;;3.00;2.60;;;;;16.91;67.93;99244.34;5028241;28;8844;-61
2022/09/16 09:39:07;;;;;;;;;0.00;0.00;;;;;16.71;67.89;99245.00;5025949;28;8852;-60
2022/09/16 09:41:34;;;;;;;;;3.00;3.00;;;;;16.53;68.50;99242.59;5026653;28;8884;-61
2022/09/16 09:44:02;;;;;;;;;3.00;3.00;;;;;16.40;68.92;99236.13;5027616;28;8836;-61
2022/09/16 09:46:30;;;;;;;;;0.00;0.00;;;;;16.26;69.14;99236.81;5027560;28;8852;-61
2022/09/16 09:48:58;;;;;;;;;2.60;1.00;;;;;16.22;69.21;99234.66;5027515;28;8857;-60
2022/09/16 09:51:26;;;;;;;;;3.20;3.00;;;;;16.51;68.64;99241.94;5029509;28;9494;-61
2022/09/16 09:53:54;;;;;;;;;5.20;4.40;;;;;16.75;67.76;99241.78;5030176;28;8917;-60
2022/09/16 09:56:22;;;;;;;;;2.20;2.20;;;;;16.92;67.82;99239.78;5030715;28;8832;-61
2022/09/16 09:58:50;;;;;;;;;3.80;3.80;;;;;17.52;66.00;99227.19;5031041;28;8829;-61
2022/09/16 10:01:17;;;;;;;;;4.00;4.00;;;;;17.62;65.53;99236.69;5031075;28;8860;-60
2022/09/16 10:03:45;;;;;;;;;3.00;3.00;;;;;17.52;66.68;99230.75;5030194;28;8840;-61
2022/09/16 10:06:14;;;;;;;;;3.20;3.20;;;;;17.35;66.45;99237.28;5030696;28;8828;-61
2022/09/16 10:08:42;;;;;;;;;3.00;3.00;;;;;17.17;67.26;99238.63;5030353;28;8833;-62
2022/09/16 10:11:10;;;;;;;;;3.20;3.20;;;;;17.07;67.41;99232.63;5027761;28;8857;-60
2022/09/16 10:13:37;;;;;;;;;3.00;3.00;;;;;17.16;67.48;99235.06;5027847;28;8844;-61
2022/09/16 10:16:05;;;;;;;;;3.20;3.20;;;;;16.98;66.88;99242.63;5027075;28;8847;-62
2022/09/16 10:18:33;;;;;;;;;3.20;3.20;;;;;16.90;67.20;99234.63;5027548;28;8950;-61
2022/09/16 10:21:01;;;;;;;;;3.40;3.40;;;;;16.77;67.59;99229.00;5028957;28;8853;-61
2022/09/16 10:23:29;;;;;;;;;1.00;1.00;;;;;16.98;67.51;99229.19;5028508;28;8845;-61
2022/09/16 10:25:57;;;;;;;;;3.60;3.60;;;;;18.23;64.99;99220.16;5029072;28;8829;-60
2022/09/16 10:28:25;;;;;;;;;4.00;3.00;;;;;19.84;61.58;99216.59;5027527;28;8836;-62
2022/09/16 10:30:53;;;;;;;;;3.00;3.00;;;;;20.77;59.58;99211.44;5028237;28;8860;-61
2022/09/16 10:33:21;;;;;;;;;1.00;1.00;;;;;21.11;58.37;99206.75;5029072;28;8833;-60
2022/09/16 10:35:48;;;;;;;;;4.00;4.00;;;;;21.13;59.24;99207.34;5028243;28;8825;-61
2022/09/16 10:38:16;;;;;;;;;2.20;1.80;;;;;20.96;59.34;99209.63;5027494;28;8845;-61
2022/09/16 10:40:44;;;;;;;;;2.00;2.00;;;;;20.78;59.73;99194.97;5028196;28;8855;-60
2022/09/16 10:43:11;;;;;;;;;2.00;2.00;;;;;20.71;59.59;99204.13;5028426;28;8860;-60
2022/09/16 10:45:39;;;;;;;;;1.00;1.00;;;;;20.49;60.09;99202.59;5028557;28;8849;-60
2022/09/16 10:48:07;;;;;;;;;2.00;2.00;;;;;20.30;60.43;99201.47;5030043;28;8843;-60
2022/09/16 10:50:35;;;;;;;;;1.00;1.00;;;;;20.20;60.58;99200.19;5030791;28;8828;-60
2022/09/16 10:53:03;;;;;;;;;1.00;1.00;;;;;20.21;60.13;99191.88;5029772;28;8833;-61
2022/09/16 10:55:34;;;;;;;;;1.00;1.00;;;;;20.32;59.84;99204.00;5029964;28;9603;-61
2022/09/16 10:58:02;;;;;;;;;1.00;1.00;;;;;20.57;59.02;99189.72;5029086;28;8845;-61
2022/09/16 11:00:30;;;;;;;;;0.60;0.60;;;;;20.49;59.33;99200.72;5029894;28;8841;-61
2022/09/16 11:02:58;;;;;;;;;1.00;1.00;;;;;20.22;59.11;99204.38;5027946;28;9513;-61
2022/09/16 11:05:26;;;;;;;;;1.00;1.00;;;;;19.74;60.14;99205.31;5029502;28;8839;-61
2022/09/16 11:07:53;;;;;;;;;0.80;0.80;;;;;19.20;61.27;99215.06;5029046;28;8862;-61
2022/09/16 11:10:22;;;;;;;;;1.60;1.60;;;;;18.69;62.27;99223.44;5028035;28;8852;-60
2022/09/16 11:12:49;;;;;;;;;0.40;0.40;;;;;18.20;63.20;99244.78;5028088;28;9196;-61
2022/09/16 11:15:17;;;;;;;;;1.00;1.00;;;;;17.65;64.28;99247.13;5028276;28;8832;-63
2022/09/16 11:17:45;;;;;;;;;0.00;0.00;;;;;17.11;65.69;99244.72;5029551;28;9572;-62
2022/09/16 11:20:12;;;;;;;;;0.60;0.00;;;;;16.67;66.49;99251.75;5028858;28;8837;-61
2022/09/16 11:22:40;;;;;;;;;0.00;0.00;;;;;16.27;67.69;99271.56;5028078;28;8833;-60
2022/09/16 11:25:08;;;;;;;;;0.00;0.00;;;;;15.93;68.33;99261.28;5029551;28;8824;-62
2022/09/16 11:27:36;;;;;;;;;0.00;0.00;;;;;15.51;69.39;99260.69;5028784;28;9606;-60
2022/09/16 11:30:04;;;;;;;;;0.00;0.00;;;;;15.12;70.28;99254.31;5028438;28;8976;-60
2022/09/16 11:32:34;;;;;;;;;0.60;0.00;;;;;14.86;71.29;99269.72;5031089;28;8845;-62
2022/09/16 11:35:02;;;;;;;;;0.00;0.00;;;;;14.74;71.64;99257.63;5031508;28;8837;-60
2022/09/16 11:37:30;;;;;;;;;0.00;0.00;;;;;14.73;71.45;99264.00;5032329;28;8877;-60
2022/09/16 11:39:58;;;;;;;;;0.00;0.00;;;;;14.81;70.88;99253.28;5030772;28;8837;-60
2022/09/16 11:42:26;;;;;;;;;0.00;0.00;;;;;15.15;70.34;99265.56;5031371;28;8825;-60
2022/09/16 11:44:54;;;;;;;;;0.00;0.00;;;;;16.08;68.43;99246.13;5030523;28;8845;-60